sensor_id;sensor_type;location;lat;lon;timestamp;pressure;altitude;pressure_sealevel;temperature;humidity
71716;BME280;59568;52.128;5.434;2023-09-12T00:01:20;101427.72;;;19.18;100.00
71716;BME280;59568;52.128;5.434;2023-09-12T00:03:47;101427.25;;;19.15;100.00
71716;BME280;59568;52.128;5.434;2023-09-12T00:06:14;101422.63;;;19.12;100.00
71716;BME280;59568;52.128;5.434;2023-09-12T00:08:41;101425.13;;;19.09;100.00
71716;BME280;59568;52.128;5.434;2023-09-12T00:11:10;101418.19;;;19.04;100.00
71716;BME280;59568;52.128;5.434;2023-09-12T00:13:39;101418.06;;;19.01;100.00
71716;BME280;59568;52.128;5.434;2023-09-12T00:16:07;101405.81;;;18.96;100.00
71716;BME280;59568;52.128;5.434;2023-09-12T00:18:37;101401.97;;;18.93;100.00
71716;BME280;59568;52.128;5.434;2023-09-12T00:21:04;101392.78;;;18.91;100.00
71716;BME280;59568;52.128;5.434;2023-09-12T00:23:31;101396.41;;;18.86;100.00
71716;BME280;59568;52.128;5.434;2023-09-12T00:25:58;101395.19;;;18.84;100.00
71716;BME280;59568;52.128;5.434;2023-09-12T00:28:25;101396.28;;;18.83;100.00
71716;BME280;59568;52.128;5.434;2023-09-12T00:30:52;101393.19;;;18.81;100.00
71716;BME280;59568;52.128;5.434;2023-09-12T00:33:19;101394.91;;;18.76;100.00
71716;BME280;59568;52.128;5.434;2023-09-12T00:35:46;101390.28;;;18.73;100.00
71716;BME280;59568;52.128;5.434;2023-09-12T00:38:13;101386.75;;;18.69;100.00
71716;BME280;59568;52.128;5.434;2023-09-12T00:40:40;101394.25;;;18.67;100.00
71716;BME280;59568;52.128;5.434;2023-09-12T00:43:07;101392.13;;;18.61;100.00
71716;BME280;59568;52.128;5.434;2023-09-12T00:45:34;101397.28;;;18.57;100.00
71716;BME280;59568;52.128;5.434;2023-09-12T00:48:03;101403.25;;;18.54;100.00
71716;BME280;59568;52.128;5.434;2023-09-12T00:50:32;101405.75;;;18.50;100.00
71716;BME280;59568;52.128;5.434;2023-09-12T00:53:00;101415.13;;;18.48;100.00
71716;BME280;59568;52.128;5.434;2023-09-12T00:55:28;101412.66;;;18.43;100.00
71716;BME280;59568;52.128;5.434;2023-09-12T00:57:55;101412.22;;;18.41;100.00
71716;BME280;59568;52.128;5.434;2023-09-12T01:00:23;101407.59;;;18.38;100.00
71716;BME280;59568;52.128;5.434;2023-09-12T01:02:50;101410.41;;;18.32;100.00
71716;BME280;59568;52.128;5.434;2023-09-12T01:05:20;101404.22;;;18.28;100.00
71716;BME280;59568;52.128;5.434;2023-09-12T01:07:48;101407.97;;;18.27;100.00
71716;BME280;59568;52.128;5.434;2023-09-12T01:10:15;101406.41;;;18.26;100.00
71716;BME280;59568;52.128;5.434;2023-09-12T01:12:44;101405.97;;;18.24;100.00
71716;BME280;59568;52.128;5.434;2023-09-12T01:15:11;101403.97;;;18.21;100.00
71716;BME280;59568;52.128;5.434;2023-09-12T01:17:45;101407.56;;;18.16;100.00
71716;BME280;59568;52.128;5.434;2023-09-12T01:20:16;101399.19;;;18.14;100.00
71716;BME280;59568;52.128;5.434;2023-09-12T01:28:15;101406.44;;;18.05;100.00
71716;BME280;59568;52.128;5.434;2023-09-12T01:30:45;101404.41;;;18.02;100.00
71716;BME280;59568;52.128;5.434;2023-09-12T01:33:15;101412.22;;;17.99;100.00
71716;BME280;59568;52.128;5.434;2023-09-12T01:35:42;101398.88;;;17.95;100.00
71716;BME280;59568;52.128;5.434;2023-09-12T01:38:10;101401.38;;;17.91;100.00
71716;BME280;59568;52.128;5.434;2023-09-12T01:40:49;101404.34;;;17.90;100.00
71716;BME280;59568;52.128;5.434;2023-09-12T01:43:18;101397.06;;;17.87;100.00
71716;BME280;59568;52.128;5.434;2023-09-12T01:45:47;101399.22;;;17.85;100.00
71716;BME280;59568;52.128;5.434;2023-09-12T01:48:19;101399.56;;;17.83;100.00
71716;BME280;59568;52.128;5.434;2023-09-12T01:50:48;101396.94;;;17.83;100.00
71716;BME280;59568;52.128;5.434;2023-09-12T01:53:16;101394.88;;;17.80;100.00
71716;BME280;59568;52.128;5.434;2023-09-12T01:55:45;101391.78;;;17.78;100.00
71716;BME280;59568;52.128;5.434;2023-09-12T01:58:13;101392.91;;;17.77;100.00
71716;BME280;59568;52.128;5.434;2023-09-12T02:00:41;101388.69;;;17.76;100.00
71716;BME280;59568;52.128;5.434;2023-09-12T02:03:08;101389.78;;;17.75;100.00
71716;BME280;59568;52.128;5.434;2023-09-12T02:05:35;101389.00;;;17.74;100.00
71716;BME280;59568;52.128;5.434;2023-09-12T02:08:04;101389.34;;;17.73;100.00
71716;BME280;59568;52.128;5.434;2023-09-12T02:10:31;101386.25;;;17.71;100.00
71716;BME280;59568;52.128;5.434;2023-09-12T02:12:59;101380.97;;;17.71;100.00
71716;BME280;59568;52.128;5.434;2023-09-12T02:15:25;101383.59;;;17.71;100.00
71716;BME280;59568;52.128;5.434;2023-09-12T02:17:52;101386.25;;;17.71;100.00
71716;BME280;59568;52.128;5.434;2023-09-12T02:20:19;101390.75;;;17.70;100.00
71716;BME280;59568;52.128;5.434;2023-09-12T02:22:47;101376.31;;;17.68;100.00
71716;BME280;59568;52.128;5.434;2023-09-12T02:25:14;101380.06;;;17.67;100.00
71716;BME280;59568;52.128;5.434;2023-09-12T02:27:40;101375.09;;;17.65;100.00
71716;BME280;59568;52.128;5.434;2023-09-12T02:30:07;101387.84;;;17.63;100.00
71716;BME280;59568;52.128;5.434;2023-09-12T02:32:35;101386.63;;;17.61;100.00
71716;BME280;59568;52.128;5.434;2023-09-12T02:35:02;101383.50;;;17.58;100.00
71716;BME280;59568;52.128;5.434;2023-09-12T02:37:29;101390.34;;;17.60;100.00
71716;BME280;59568;52.128;5.434;2023-09-12T02:39:56;101392.06;;;17.55;100.00
71716;BME280;59568;52.128;5.434;2023-09-12T02:42:23;101388.53;;;17.51;100.00
71716;BME280;59568;52.128;5.434;2023-09-12T02:44:51;101395.34;;;17.52;100.00
71716;BME280;59568;52.128;5.434;2023-09-12T02:47:19;101387.28;;;17.49;100.00
71716;BME280;59568;52.128;5.434;2023-09-12T02:49:46;101394.44;;;17.48;100.00
71716;BME280;59568;52.128;5.434;2023-09-12T02:52:12;101393.97;;;17.46;100.00
71716;BME280;59568;52.128;5.434;2023-09-12T02:54:39;101394.31;;;17.45;100.00
71716;BME280;59568;52.128;5.434;2023-09-12T02:57:06;101388.56;;;17.43;100.00
71716;BME280;59568;52.128;5.434;2023-09-12T02:59:33;101397.13;;;17.40;100.00
71716;BME280;59568;52.128;5.434;2023-09-12T03:02:00;101387.66;;;17.39;100.00
71716;BME280;59568;52.128;5.434;2023-09-12T03:04:27;101392.47;;;17.36;100.00
71716;BME280;59568;52.128;5.434;2023-09-12T03:06:55;101390.78;;;17.32;100.00
71716;BME280;59568;52.128;5.434;2023-09-12T03:09:22;101397.16;;;17.31;100.00
71716;BME280;59568;52.128;5.434;2023-09-12T03:11:50;101403.84;;;17.28;100.00
71716;BME280;59568;52.128;5.434;2023-09-12T03:14:16;101404.47;;;17.25;100.00
71716;BME280;59568;52.128;5.434;2023-09-12T03:16:43;101402.16;;;17.24;100.00
71716;BME280;59568;52.128;5.434;2023-09-12T03:19:10;101400.16;;;17.21;100.00
71716;BME280;59568;52.128;5.434;2023-09-12T03:21:37;101397.81;;;17.19;100.00
71716;BME280;59568;52.128;5.434;2023-09-12T03:24:05;101402.34;;;17.19;100.00
71716;BME280;59568;52.128;5.434;2023-09-12T03:26:33;101402.94;;;17.15;100.00
71716;BME280;59568;52.128;5.434;2023-09-12T03:29:01;101394.41;;;17.10;100.00
71716;BME280;59568;52.128;5.434;2023-09-12T03:31:28;101399.56;;;17.06;100.00
71716;BME280;59568;52.128;5.434;2023-09-12T03:33:55;101396.44;;;17.04;100.00
71716;BME280;59568;52.128;5.434;2023-09-12T03:36:22;101388.53;;;17.04;100.00
71716;BME280;59568;52.128;5.434;2023-09-12T03:38:52;101380.59;;;17.04;100.00
71716;BME280;59568;52.128;5.434;2023-09-12T03:41:19;101389.63;;;17.03;100.00
71716;BME280;59568;52.128;5.434;2023-09-12T03:43:48;101387.63;;;17.00;100.00
71716;BME280;59568;52.128;5.434;2023-09-12T03:46:15;101392.59;;;17.02;100.00
71716;BME280;59568;52.128;5.434;2023-09-12T03:48:42;101389.03;;;16.97;100.00
71716;BME280;59568;52.128;5.434;2023-09-12T03:51:09;101386.69;;;16.96;100.00
71716;BME280;59568;52.128;5.434;2023-09-12T03:53:36;101384.38;;;16.94;100.00
71716;BME280;59568;52.128;5.434;2023-09-12T03:56:02;101374.91;;;16.93;100.00
71716;BME280;59568;52.128;5.434;2023-09-12T03:58:29;101377.53;;;16.93;100.00
71716;BME280;59568;52.128;5.434;2023-09-12T04:00:56;101382.50;;;16.95;100.00
71716;BME280;59568;52.128;5.434;2023-09-12T04:03:23;101378.78;;;16.96;100.00
71716;BME280;59568;52.128;5.434;2023-09-12T04:05:50;101378.78;;;16.96;100.00
71716;BME280;59568;52.128;5.434;2023-09-12T04:08:18;101381.41;;;16.96;100.00
71716;BME280;59568;52.128;5.434;2023-09-12T04:10:45;101380.94;;;16.94;100.00
71716;BME280;59568;52.128;5.434;2023-09-12T04:13:11;101380.19;;;16.93;100.00
71716;BME280;59568;52.128;5.434;2023-09-12T04:15:38;101386.56;;;16.92;100.00
71716;BME280;59568;52.128;5.434;2023-09-12T04:18:05;101378.66;;;16.92;100.00
71716;BME280;59568;52.128;5.434;2023-09-12T04:20:33;101377.38;;;16.90;100.00
71716;BME280;59568;52.128;5.434;2023-09-12T04:23:01;101369.81;;;16.88;100.00
71716;BME280;59568;52.128;5.434;2023-09-12T04:25:30;101370.88;;;16.87;100.00
71716;BME280;59568;52.128;5.434;2023-09-12T04:27:57;101362.66;;;16.89;100.00
71716;BME280;59568;52.128;5.434;2023-09-12T04:30:24;101366.38;;;16.88;100.00
71716;BME280;59568;52.128;5.434;2023-09-12T04:32:51;101360.31;;;16.87;100.00
71716;BME280;59568;52.128;5.434;2023-09-12T04:35:18;101355.81;;;16.88;100.00
71716;BME280;59568;52.128;5.434;2023-09-12T04:37:47;101358.47;;;16.88;100.00
71716;BME280;59568;52.128;5.434;2023-09-12T04:40:14;101364.84;;;16.87;100.00
71716;BME280;59568;52.128;5.434;2023-09-12T04:42:41;101360.19;;;16.84;100.00
71716;BME280;59568;52.128;5.434;2023-09-12T04:45:08;101365.78;;;16.82;100.00
71716;BME280;59568;52.128;5.434;2023-09-12T04:47:35;101358.47;;;16.79;100.00
71716;BME280;59568;52.128;5.434;2023-09-12T04:50:02;101349.78;;;16.78;100.00
71716;BME280;59568;52.128;5.434;2023-09-12T04:52:29;101360.63;;;16.77;100.00
71716;BME280;59568;52.128;5.434;2023-09-12T04:55:00;101359.41;;;16.74;100.00
71716;BME280;59568;52.128;5.434;2023-09-12T04:57:27;101362.34;;;16.73;100.00
71716;BME280;59568;52.128;5.434;2023-09-12T04:59:57;101357.38;;;16.71;100.00
71716;BME280;59568;52.128;5.434;2023-09-12T05:02:27;101356.16;;;16.69;100.00
71716;BME280;59568;52.128;5.434;2023-09-12T05:04:54;101344.84;;;16.68;100.00
71716;BME280;59568;52.128;5.434;2023-09-12T05:07:21;101350.56;;;16.70;100.00
71716;BME280;59568;52.128;5.434;2023-09-12T05:09:49;101349.47;;;16.71;100.00
71716;BME280;59568;52.128;5.434;2023-09-12T05:12:16;101357.69;;;16.70;100.00
71716;BME280;59568;52.128;5.434;2023-09-12T05:14:43;101356.16;;;16.69;100.00
71716;BME280;59568;52.128;5.434;2023-09-12T05:17:09;101367.03;;;16.67;100.00
71716;BME280;59568;52.128;5.434;2023-09-12T05:19:36;101372.94;;;16.64;100.00
71716;BME280;59568;52.128;5.434;2023-09-12T05:22:03;101369.84;;;16.62;100.00
71716;BME280;59568;52.128;5.434;2023-09-12T05:24:30;101377.75;;;16.62;100.00
71716;BME280;59568;52.128;5.434;2023-09-12T05:26:57;101374.31;;;16.62;100.00
71716;BME280;59568;52.128;5.434;2023-09-12T05:29:24;101374.31;;;16.62;100.00
71716;BME280;59568;52.128;5.434;2023-09-12T05:31:50;101373.69;;;16.65;100.00
71716;BME280;59568;52.128;5.434;2023-09-12T05:34:18;101374.47;;;16.65;100.00
71716;BME280;59568;52.128;5.434;2023-09-12T05:36:44;101380.06;;;16.64;100.00
71716;BME280;59568;52.128;5.434;2023-09-12T05:39:12;101380.06;;;16.64;100.00
71716;BME280;59568;52.128;5.434;2023-09-12T05:41:40;101377.41;;;16.64;100.00
71716;BME280;59568;52.128;5.434;2023-09-12T05:44:07;101378.97;;;16.65;100.00
71716;BME280;59568;52.128;5.434;2023-09-12T05:46:34;101377.09;;;16.65;100.00
71716;BME280;59568;52.128;5.434;2023-09-12T05:49:01;101367.78;;;16.68;100.00
71716;BME280;59568;52.128;5.434;2023-09-12T05:51:28;101378.03;;;16.69;100.00
71716;BME280;59568;52.128;5.434;2023-09-12T05:53:55;101373.22;;;16.71;100.00
71716;BME280;59568;52.128;5.434;2023-09-12T05:56:22;101368.88;;;16.75;100.00
71716;BME280;59568;52.128;5.434;2023-09-12T05:58:49;101374.91;;;16.76;100.00
71716;BME280;59568;52.128;5.434;2023-09-12T06:01:16;101373.19;;;16.80;100.00
71716;BME280;59568;52.128;5.434;2023-09-12T06:03:44;101372.16;;;16.81;100.00
71716;BME280;59568;52.128;5.434;2023-09-12T06:06:11;101383.16;;;16.83;100.00
71716;BME280;59568;52.128;5.434;2023-09-12T06:08:38;101385.19;;;16.86;100.00
71716;BME280;59568;52.128;5.434;2023-09-12T06:11:06;101395.41;;;16.88;100.00
71716;BME280;59568;52.128;5.434;2023-09-12T06:13:32;101396.97;;;16.89;100.00
71716;BME280;59568;52.128;5.434;2023-09-12T06:16:02;101400.06;;;16.91;100.00
71716;BME280;59568;52.128;5.434;2023-09-12T06:18:29;101406.75;;;16.97;100.00
71716;BME280;59568;52.128;5.434;2023-09-12T06:20:58;101403.78;;;16.99;100.00
71716;BME280;59568;52.128;5.434;2023-09-12T06:23:25;101403.91;;;17.02;100.00
71716;BME280;59568;52.128;5.434;2023-09-12T06:25:52;101405.47;;;17.03;100.00
71716;BME280;59568;52.128;5.434;2023-09-12T06:28:30;101410.13;;;17.06;100.00
71716;BME280;59568;52.128;5.434;2023-09-12T06:30:57;101416.19;;;17.07;100.00
71716;BME280;59568;52.128;5.434;2023-09-12T06:33:26;101412.44;;;17.08;100.00
71716;BME280;59568;52.128;5.434;2023-09-12T06:35:54;101413.69;;;17.10;100.00
71716;BME280;59568;52.128;5.434;2023-09-12T06:38:22;101414.94;;;17.13;100.00
71716;BME280;59568;52.128;5.434;2023-09-12T06:40:49;101406.06;;;17.17;100.00
71716;BME280;59568;52.128;5.434;2023-09-12T06:43:16;101416.13;;;17.24;100.00
71716;BME280;59568;52.128;5.434;2023-09-12T06:45:43;101409.56;;;17.30;100.00
71716;BME280;59568;52.128;5.434;2023-09-12T06:48:10;101411.28;;;17.35;100.00
71716;BME280;59568;52.128;5.434;2023-09-12T06:50:37;101412.19;;;17.39;100.00
71716;BME280;59568;52.128;5.434;2023-09-12T06:53:05;101416.22;;;17.45;100.00
71716;BME280;59568;52.128;5.434;2023-09-12T06:55:36;101416.47;;;17.52;100.00
71716;BME280;59568;52.128;5.434;2023-09-12T06:58:04;101418.94;;;17.57;100.00
71716;BME280;59568;52.128;5.434;2023-09-12T07:00:31;101414.28;;;17.63;100.00
71716;BME280;59568;52.128;5.434;2023-09-12T07:02:58;101423.88;;;17.68;100.00
71716;BME280;59568;52.128;5.434;2023-09-12T07:05:25;101422.13;;;17.72;100.00
71716;BME280;59568;52.128;5.434;2023-09-12T07:07:52;101425.69;;;17.76;100.00
71716;BME280;59568;52.128;5.434;2023-09-12T07:10:19;101431.88;;;17.80;100.00
71716;BME280;59568;52.128;5.434;2023-09-12T07:12:50;101436.59;;;17.83;100.00
71716;BME280;59568;52.128;5.434;2023-09-12T07:15:17;101422.25;;;17.84;100.00
71716;BME280;59568;52.128;5.434;2023-09-12T07:17:44;101420.88;;;17.87;100.00
71716;BME280;59568;52.128;5.434;2023-09-12T07:20:11;101419.88;;;17.91;100.00
71716;BME280;59568;52.128;5.434;2023-09-12T07:22:39;101408.22;;;17.92;100.00
71716;BME280;59568;52.128;5.434;2023-09-12T07:25:07;101409.78;;;17.93;100.00
71716;BME280;59568;52.128;5.434;2023-09-12T07:27:35;101411.75;;;17.96;100.00
71716;BME280;59568;52.128;5.434;2023-09-12T07:30:05;101418.59;;;17.98;100.00
71716;BME280;59568;52.128;5.434;2023-09-12T07:32:32;101418.28;;;17.99;100.00
71716;BME280;59568;52.128;5.434;2023-09-12T07:34:59;101425.88;;;18.01;100.00
71716;BME280;59568;52.128;5.434;2023-09-12T07:37:26;101423.69;;;18.03;100.00
71716;BME280;59568;52.128;5.434;2023-09-12T07:39:53;101421.50;;;18.05;100.00
71716;BME280;59568;52.128;5.434;2023-09-12T07:42:23;101423.06;;;18.06;100.00
71716;BME280;59568;52.128;5.434;2023-09-12T07:44:50;101418.06;;;18.13;100.00
71716;BME280;59568;52.128;5.434;2023-09-12T07:47:18;101428.25;;;18.23;100.00
71716;BME280;59568;52.128;5.434;2023-09-12T07:49:45;101423.00;;;18.35;100.00
71716;BME280;59568;52.128;5.434;2023-09-12T07:52:12;101425.50;;;18.53;100.00
71716;BME280;59568;52.128;5.434;2023-09-12T07:54:39;101433.09;;;18.75;100.00
71716;BME280;59568;52.128;5.434;2023-09-12T07:57:06;101424.81;;;19.10;100.00
71716;BME280;59568;52.128;5.434;2023-09-12T07:59:33;101425.28;;;19.37;100.00
71716;BME280;59568;52.128;5.434;2023-09-12T08:02:00;101426.53;;;19.52;100.00
71716;BME280;59568;52.128;5.434;2023-09-12T08:04:27;101427.41;;;19.56;100.00
71716;BME280;59568;52.128;5.434;2023-09-12T08:06:54;101446.19;;;19.75;100.00
71716;BME280;59568;52.128;5.434;2023-09-12T08:09:46;101443.75;;;19.95;100.00
71716;BME280;59568;52.128;5.434;2023-09-12T08:12:11;101445.78;;;20.14;100.00
71716;BME280;59568;52.128;5.434;2023-09-12T08:14:38;101441.78;;;20.32;100.00
71716;BME280;59568;52.128;5.434;2023-09-12T08:17:05;101449.28;;;20.43;100.00
71716;BME280;59568;52.128;5.434;2023-09-12T08:19:33;101449.88;;;20.52;100.00
71716;BME280;59568;52.128;5.434;2023-09-12T08:22:00;101450.56;;;20.61;100.00
71716;BME280;59568;52.128;5.434;2023-09-12T08:24:27;101459.13;;;20.70;100.00
71716;BME280;59568;52.128;5.434;2023-09-12T08:26:53;101452.91;;;20.79;100.00
71716;BME280;59568;52.128;5.434;2023-09-12T08:29:21;101453.34;;;20.81;100.00
71716;BME280;59568;52.128;5.434;2023-09-12T08:31:48;101440.22;;;20.88;100.00
71716;BME280;59568;52.128;5.434;2023-09-12T08:34:16;101456.63;;;21.06;100.00
71716;BME280;59568;52.128;5.434;2023-09-12T08:36:42;101455.25;;;21.12;100.00
71716;BME280;59568;52.128;5.434;2023-09-12T08:39:13;101453.47;;;21.16;100.00
71716;BME280;59568;52.128;5.434;2023-09-12T08:41:40;101455.34;;;21.15;100.00
71716;BME280;59568;52.128;5.434;2023-09-12T08:44:08;101449.34;;;21.19;100.00
71716;BME280;59568;52.128;5.434;2023-09-12T08:46:36;101447.63;;;21.26;100.00
71716;BME280;59568;52.128;5.434;2023-09-12T08:49:04;101455.69;;;21.30;100.00
71716;BME280;59568;52.128;5.434;2023-09-12T08:51:33;101448.34;;;21.39;100.00
71716;BME280;59568;52.128;5.434;2023-09-12T08:54:00;101450.63;;;21.41;100.00
71716;BME280;59568;52.128;5.434;2023-09-12T08:56:29;101447.97;;;21.57;100.00
71716;BME280;59568;52.128;5.434;2023-09-12T08:58:58;101449.84;;;21.72;100.00
71716;BME280;59568;52.128;5.434;2023-09-12T09:01:26;101451.34;;;21.89;100.00
71716;BME280;59568;52.128;5.434;2023-09-12T09:03:55;101449.00;;;22.03;100.00
71716;BME280;59568;52.128;5.434;2023-09-12T09:06:24;101442.31;;;22.09;100.00
71716;BME280;59568;52.128;5.434;2023-09-12T09:08:52;101452.22;;;22.12;100.00
71716;BME280;59568;52.128;5.434;2023-09-12T09:11:20;101453.63;;;22.06;100.00
71716;BME280;59568;52.128;5.434;2023-09-12T09:13:46;101453.91;;;22.21;100.00
71716;BME280;59568;52.128;5.434;2023-09-12T09:16:16;101457.25;;;22.33;100.00
71716;BME280;59568;52.128;5.434;2023-09-12T09:18:54;101449.78;;;22.23;100.00
71716;BME280;59568;52.128;5.434;2023-09-12T09:21:23;101461.53;;;22.03;100.00
71716;BME280;59568;52.128;5.434;2023-09-12T09:23:54;101467.56;;;22.00;100.00
71716;BME280;59568;52.128;5.434;2023-09-12T09:26:21;101466.72;;;22.15;100.00
71716;BME280;59568;52.128;5.434;2023-09-12T09:29:06;101465.25;;;22.33;100.00
71716;BME280;59568;52.128;5.434;2023-09-12T09:31:35;101467.34;;;22.24;100.00
71716;BME280;59568;52.128;5.434;2023-09-12T09:34:02;101464.56;;;22.21;100.00
71716;BME280;59568;52.128;5.434;2023-09-12T09:36:31;101469.22;;;22.24;100.00
71716;BME280;59568;52.128;5.434;2023-09-12T09:38:58;101470.66;;;22.21;100.00
71716;BME280;59568;52.128;5.434;2023-09-12T09:41:26;101470.75;;;22.25;100.00
71716;BME280;59568;52.128;5.434;2023-09-12T09:43:53;101473.56;;;22.32;100.00
71716;BME280;59568;52.128;5.434;2023-09-12T09:46:20;101470.78;;;22.44;100.00
71716;BME280;59568;52.128;5.434;2023-09-12T09:48:51;101473.34;;;22.41;100.00
71716;BME280;59568;52.128;5.434;2023-09-12T09:51:18;101471.38;;;22.57;100.00
71716;BME280;59568;52.128;5.434;2023-09-12T09:53:46;101468.81;;;22.84;100.00
71716;BME280;59568;52.128;5.434;2023-09-12T09:56:17;101472.63;;;23.02;100.00
71716;BME280;59568;52.128;5.434;2023-09-12T09:58:48;101473.63;;;22.98;100.00
71716;BME280;59568;52.128;5.434;2023-09-12T10:01:21;101468.72;;;23.00;100.00
71716;BME280;59568;52.128;5.434;2023-09-12T10:03:51;101471.97;;;22.89;100.00
71716;BME280;59568;52.128;5.434;2023-09-12T10:06:19;101475.28;;;22.83;100.00
71716;BME280;59568;52.128;5.434;2023-09-12T10:08:55;101476.41;;;22.82;100.00
71716;BME280;59568;52.128;5.434;2023-09-12T10:11:28;101482.28;;;23.10;99.77
71716;BME280;59568;52.128;5.434;2023-09-12T10:13:57;101479.44;;;23.23;98.30
71716;BME280;59568;52.128;5.434;2023-09-12T10:16:34;101485.19;;;23.51;96.90
71716;BME280;59568;52.128;5.434;2023-09-12T10:21:54;101483.50;;;23.40;95.28
71716;BME280;59568;52.128;5.434;2023-09-12T10:24:24;101482.84;;;23.73;95.92
71716;BME280;59568;52.128;5.434;2023-09-12T10:26:51;101486.28;;;23.97;92.44
71716;BME280;59568;52.128;5.434;2023-09-12T10:29:19;101483.78;;;23.84;91.92
71716;BME280;59568;52.128;5.434;2023-09-12T10:31:47;101472.25;;;24.03;91.71
71716;BME280;59568;52.128;5.434;2023-09-12T10:34:15;101463.22;;;24.15;87.21
71716;BME280;59568;52.128;5.434;2023-09-12T10:36:45;101466.13;;;24.37;88.43
71716;BME280;59568;52.128;5.434;2023-09-12T10:39:14;101468.59;;;24.49;86.07
71716;BME280;59568;52.128;5.434;2023-09-12T10:41:41;101468.38;;;24.65;86.20
71716;BME280;59568;52.128;5.434;2023-09-12T10:44:15;101466.22;;;24.78;86.46
71716;BME280;59568;52.128;5.434;2023-09-12T10:46:44;101477.09;;;24.96;84.95
71716;BME280;59568;52.128;5.434;2023-09-12T10:49:13;101470.91;;;24.88;82.72
71716;BME280;59568;52.128;5.434;2023-09-12T10:51:42;101473.13;;;24.82;84.14
71716;BME280;59568;52.128;5.434;2023-09-12T10:54:15;101482.94;;;24.67;84.66
71716;BME280;59568;52.128;5.434;2023-09-12T10:56:42;101486.47;;;24.45;82.48
71716;BME280;59568;52.128;5.434;2023-09-12T10:59:12;101484.06;;;24.36;84.28
71716;BME280;59568;52.128;5.434;2023-09-12T11:01:44;101485.19;;;24.65;84.99
71716;BME280;59568;52.128;5.434;2023-09-12T11:06:51;101480.44;;;25.30;83.53
71716;BME280;59568;52.128;5.434;2023-09-12T11:09:21;101478.38;;;25.61;82.38
71716;BME280;59568;52.128;5.434;2023-09-12T11:12:03;101480.72;;;25.73;79.38
71716;BME280;59568;52.128;5.434;2023-09-12T11:14:31;101478.50;;;25.82;79.49
71716;BME280;59568;52.128;5.434;2023-09-12T11:22:25;101461.88;;;25.07;79.21
71716;BME280;59568;52.128;5.434;2023-09-12T11:24:54;101451.84;;;24.93;80.42
71716;BME280;59568;52.128;5.434;2023-09-12T11:27:25;101445.16;;;25.14;81.17
71716;BME280;59568;52.128;5.434;2023-09-12T11:29:52;101441.88;;;25.35;80.14
71716;BME280;59568;52.128;5.434;2023-09-12T11:32:32;101445.72;;;25.34;78.63
71716;BME280;59568;52.128;5.434;2023-09-12T11:35:08;101438.44;;;25.34;78.98
71716;BME280;59568;52.128;5.434;2023-09-12T11:37:35;101444.44;;;25.20;79.70
71716;BME280;59568;52.128;5.434;2023-09-12T11:42:40;101442.38;;;24.99;81.54
71716;BME280;59568;52.128;5.434;2023-09-12T11:45:10;101455.25;;;24.90;81.14
71716;BME280;59568;52.128;5.434;2023-09-12T11:47:42;101447.72;;;24.99;81.11
71716;BME280;59568;52.128;5.434;2023-09-12T11:50:32;101452.06;;;25.18;81.87
71716;BME280;59568;52.128;5.434;2023-09-12T11:53:06;101452.63;;;25.38;80.07
71716;BME280;59568;52.128;5.434;2023-09-12T11:55:37;101452.34;;;25.54;80.92
71716;BME280;59568;52.128;5.434;2023-09-12T11:58:05;101445.50;;;25.64;78.69
71716;BME280;59568;52.128;5.434;2023-09-12T12:00:33;101447.91;;;25.80;79.60
71716;BME280;59568;52.128;5.434;2023-09-12T12:03:00;101458.72;;;26.05;75.97
71716;BME280;59568;52.128;5.434;2023-09-12T12:05:28;101449.63;;;26.27;76.66
71716;BME280;59568;52.128;5.434;2023-09-12T12:07:55;101447.38;;;26.37;75.30
71716;BME280;59568;52.128;5.434;2023-09-12T12:10:43;101442.00;;;26.33;73.15
71716;BME280;59568;52.128;5.434;2023-09-12T12:13:17;101447.38;;;26.44;76.07
71716;BME280;59568;52.128;5.434;2023-09-12T12:15:44;101448.59;;;26.68;70.33
71716;BME280;59568;52.128;5.434;2023-09-12T12:18:12;101447.47;;;26.83;73.81
71716;BME280;59568;52.128;5.434;2023-09-12T12:20:38;101442.88;;;27.05;73.25
71716;BME280;59568;52.128;5.434;2023-09-12T12:23:06;101439.81;;;27.07;72.88
71716;BME280;59568;52.128;5.434;2023-09-12T12:25:33;101434.44;;;27.03;69.94
71716;BME280;59568;52.128;5.434;2023-09-12T12:28:02;101433.28;;;26.90;74.06
71716;BME280;59568;52.128;5.434;2023-09-12T12:30:33;101426.78;;;27.05;73.70
71716;BME280;59568;52.128;5.434;2023-09-12T12:33:05;101423.72;;;27.00;73.22
71716;BME280;59568;52.128;5.434;2023-09-12T12:36:03;101430.22;;;26.59;70.78
71716;BME280;59568;52.128;5.434;2023-09-12T12:38:35;101428.31;;;26.85;74.42
71716;BME280;59568;52.128;5.434;2023-09-12T12:41:25;101423.34;;;27.08;69.25
71716;BME280;59568;52.128;5.434;2023-09-12T12:44:01;101419.09;;;27.18;68.93
71716;BME280;59568;52.128;5.434;2023-09-12T12:46:29;101418.34;;;27.28;69.63
71716;BME280;59568;52.128;5.434;2023-09-12T12:48:56;101418.28;;;27.46;72.56
71716;BME280;59568;52.128;5.434;2023-09-12T12:51:25;101414.03;;;27.67;72.72
71716;BME280;59568;52.128;5.434;2023-09-12T12:53:54;101419.75;;;27.73;70.48
71716;BME280;59568;52.128;5.434;2023-09-12T12:56:27;101414.41;;;27.69;70.07
71716;BME280;59568;52.128;5.434;2023-09-12T12:58:59;101419.00;;;27.68;70.70
71716;BME280;59568;52.128;5.434;2023-09-12T13:01:30;101420.25;;;27.35;68.43
71716;BME280;59568;52.128;5.434;2023-09-12T13:03:57;101417.56;;;27.28;70.89
71716;BME280;59568;52.128;5.434;2023-09-12T13:06:24;101424.50;;;27.29;72.06
71716;BME280;59568;52.128;5.434;2023-09-12T13:08:53;101427.53;;;27.06;71.24